Tropical Cyclones
[Index]
Main Index Home Page Stock Weather Photos Extreme Storms Discussion Storm News and Storm Chasing Reports Tropical Cyclones / Hurricanes / Typhoons Weather Data and Links Wild Fires / Bushfires Weather Observation Techniques Weather Picture Catalogue Tornado Pictures and Reports Stock Video Footage and DVDs for sale
Season 2004-2005 Tropical Cyclone DAREN Track Map
Season 2004-2005 Summaries (Operational Data): [AU] [SIO] [SPAC] [SH]
<<- Previous TC | 2004-2005 Season | Next TC ->>

click for intensity scale information  Lat/long Grid: Show Hide

 Date Labels: Show Hide

Operational Tropical Cyclone Data : JTWC Advisories

Name: DAREN
Number: 0511

17 Jan 2005 12:00 UTC to 22 Jan 2005 12:00 UTC

    date/time    lat    long     hPa   cat  kts
2005-01-17 12    9.3    84.8    1004         25          
2005-01-17 18    9.8    83.5    1001         25          
2005-01-18 00   10.2    83.6    1000         25          
2005-01-18 06   11.2    83.4    1002         25          
2005-01-18 12   11.4    82.3    1001         25          
2005-01-18 18   11.3    81.0    1001         25          
2005-01-19 00   12.1    79.7    1000         25          
2005-01-19 06   13.3    76.9     997         30          
2005-01-19 12   14.1    75.5     990    1    40          
2005-01-19 18   15.3    73.8     990    1    40          
2005-01-20 00   16.3    72.7     988    1    40          
2005-01-20 06   15.8    71.8     988    1    40          
2005-01-20 12   16.0    70.5     990    1    40          
2005-01-20 18   16.2    69.0     995    1    35          
2005-01-21 00   16.4    67.8     997         30          
2005-01-21 06   16.8    66.4     998         30          
2005-01-21 12   16.9    64.8     998         30          
2005-01-21 18   17.0    62.8    1001         25          
2005-01-22 00   17.1    61.3    1001         25          
2005-01-22 06   17.4    59.3    1006         25          
2005-01-22 12   17.5    57.9    1007         25          
Winds are 10-min average.

Tropical cyclone tracks developed by Michael Bath using operational warnings and advisories and Google Maps.


[Australian Severe Weather index] [Copyright Notice] [Email Contacts] [Search This Site] [Privacy Policy]
Document: tropical_cyclone_daren.htm Updated: 28 May 2013